FVBO weather

Bosbury Airport
Bosbury, Mashonaland West Province, Zimbabwe

Public forecast

Using degrees Celsius for public forecast. Weather courtesy of forecast.io.

METAR (pilot weather report)

Closest report is Robert Gabriel Mugabe International Airport, 57.4 nm (106.3 km) ENE. Retrieved 2019/05/21 03:00 UTC (58 minutes ago):

FVRG 210300Z 00000KT CAVOK 10/09 Q1024 NOSIG

TAF (pilot weather forecast)

Forecast is more than 6 hours old.

Closest forecast is Robert Gabriel Mugabe International Airport, 57.4 nm (106.3 km) ENE. Retrieved 2019/05/20 18:00 UTC (10 hours ago):

TAF FVRG 201600Z 2018/2124 10006KT CAVOK